createdAt,value
2023-02-16T00:00:51.454Z,15.00
2023-02-16T00:03:23.058Z,14.73
2023-02-16T00:05:50.772Z,14.50
2023-02-16T00:08:17.441Z,14.90
2023-02-16T00:11:04.918Z,15.25
2023-02-16T00:13:52.938Z,15.15
2023-02-16T00:16:23.292Z,15.82
2023-02-16T00:18:51.173Z,14.50
2023-02-16T00:21:18.751Z,15.90
2023-02-16T00:23:46.022Z,15.07
2023-02-16T00:26:23.808Z,14.65
2023-02-16T00:28:54.062Z,15.50
2023-02-16T00:31:24.394Z,14.48
2023-02-16T00:33:51.035Z,14.73
2023-02-16T00:36:17.629Z,14.77
2023-02-16T00:38:44.799Z,14.95
2023-02-16T00:41:43.317Z,15.95
2023-02-16T00:44:17.203Z,14.57
2023-02-16T00:46:44.962Z,15.75
2023-02-16T00:49:15.871Z,15.43
2023-02-16T00:51:42.984Z,15.07
2023-02-16T00:54:09.796Z,15.32
2023-02-16T00:56:37.134Z,15.95
2023-02-16T00:59:07.850Z,16.35
2023-02-16T01:01:36.813Z,15.98
2023-02-16T01:04:06.944Z,16.05
2023-02-16T01:06:52.158Z,15.70
2023-02-16T01:09:39.600Z,15.00
2023-02-16T01:12:14.957Z,15.48
2023-02-16T01:14:41.642Z,15.07
2023-02-16T01:17:09.698Z,16.15
2023-02-16T01:19:36.214Z,16.02
2023-02-16T01:22:02.790Z,14.80
2023-02-16T01:24:29.340Z,14.98
2023-02-16T01:26:55.932Z,15.05
2023-02-16T01:29:22.515Z,15.02
2023-02-16T01:31:49.181Z,14.90
2023-02-16T01:34:15.935Z,15.60
2023-02-16T01:36:49.478Z,15.20
2023-02-16T01:39:19.268Z,15.93
2023-02-16T01:41:56.506Z,14.90
2023-02-16T01:44:59.996Z,15.50
2023-02-16T01:47:33.096Z,15.63
2023-02-16T01:50:02.762Z,15.00
2023-02-16T01:52:36.685Z,14.75
2023-02-16T01:55:21.995Z,14.77
2023-02-16T01:58:14.563Z,16.33
2023-02-16T02:00:54.729Z,15.45
2023-02-16T02:03:45.114Z,16.13
2023-02-16T02:06:19.042Z,15.98
2023-02-16T02:08:58.878Z,15.90
2023-02-16T02:11:32.571Z,17.15
2023-02-16T02:14:06.544Z,15.90
2023-02-16T02:16:33.300Z,16.13
2023-02-16T02:18:59.880Z,16.77
2023-02-16T02:22:06.818Z,17.08
2023-02-16T02:24:33.307Z,16.60
2023-02-16T02:27:18.393Z,17.35
2023-02-16T02:30:29.921Z,16.90
2023-02-16T02:33:25.894Z,17.13
2023-02-16T02:36:30.796Z,16.13
2023-02-16T02:39:12.799Z,16.70
2023-02-16T02:42:05.670Z,17.00
2023-02-16T02:44:44.313Z,15.57
2023-02-16T02:47:10.927Z,16.63
2023-02-16T02:49:37.505Z,16.88
2023-02-16T02:52:04.652Z,16.48
2023-02-16T02:54:57.147Z,16.20
2023-02-16T02:57:55.563Z,16.38
2023-02-16T03:00:47.913Z,15.98
2023-02-16T03:03:25.230Z,16.58
2023-02-16T03:05:58.285Z,16.90
2023-02-16T03:08:29.164Z,16.13
2023-02-16T03:11:23.468Z,16.83
2023-02-16T03:13:58.649Z,17.00
2023-02-16T03:16:40.890Z,17.70
2023-02-16T03:19:29.298Z,18.02
2023-02-16T03:22:16.894Z,17.27
2023-02-16T03:25:03.058Z,17.15
2023-02-16T03:27:57.201Z,16.60
2023-02-16T03:30:25.760Z,17.70
2023-02-16T03:32:52.903Z,17.15
2023-02-16T03:35:20.105Z,17.40
2023-02-16T03:37:47.610Z,17.15
2023-02-16T03:40:29.777Z,17.67
2023-02-16T03:43:04.418Z,18.35
2023-02-16T03:45:35.058Z,16.85
2023-02-16T03:48:03.419Z,17.65
2023-02-16T03:50:30.521Z,17.38
2023-02-16T03:53:06.765Z,17.92
2023-02-16T03:55:47.165Z,17.77
2023-02-16T03:58:16.879Z,18.83
2023-02-16T04:00:44.081Z,16.67
2023-02-16T04:03:11.334Z,16.67
2023-02-16T04:05:38.342Z,17.90
2023-02-16T04:08:06.283Z,17.63
2023-02-16T04:10:33.327Z,17.67
2023-02-16T04:13:00.001Z,17.23
2023-02-16T04:15:29.218Z,16.77
2023-02-16T04:17:55.787Z,17.25
2023-02-16T04:20:28.792Z,17.42
2023-02-16T04:22:55.919Z,17.50
2023-02-16T04:25:23.241Z,18.17
2023-02-16T04:27:51.553Z,17.75
2023-02-16T04:30:24.438Z,17.92
2023-02-16T04:32:51.714Z,17.77
2023-02-16T04:35:18.807Z,17.48
2023-02-16T04:37:45.521Z,17.20
2023-02-16T04:40:13.860Z,17.63
2023-02-16T04:42:44.651Z,16.67
2023-02-16T04:45:12.124Z,17.80
2023-02-16T04:47:38.655Z,16.67
2023-02-16T04:50:06.245Z,17.45
2023-02-16T04:52:34.278Z,17.48
2023-02-16T04:55:00.991Z,17.55
2023-02-16T04:57:27.876Z,17.73
2023-02-16T04:59:54.428Z,17.90
2023-02-16T05:02:20.969Z,16.92
2023-02-16T05:04:47.700Z,17.58
2023-02-16T05:07:14.358Z,17.30
2023-02-16T05:09:40.901Z,17.63
2023-02-16T05:12:26.204Z,16.90
2023-02-16T05:14:52.745Z,16.00
2023-02-16T05:17:22.532Z,17.13
2023-02-16T05:20:00.505Z,16.42
2023-02-16T05:22:28.928Z,16.23
2023-02-16T05:24:55.574Z,16.27
2023-02-16T05:27:24.919Z,16.67
2023-02-16T05:29:51.958Z,16.65
2023-02-16T05:32:19.303Z,16.25
2023-02-16T05:34:45.974Z,16.60
2023-02-16T05:37:14.541Z,16.08
2023-02-16T05:39:41.412Z,16.38
2023-02-16T05:42:08.507Z,16.25
2023-02-16T05:44:35.666Z,16.38
2023-02-16T05:47:02.217Z,15.70
2023-02-16T05:49:28.799Z,15.20
2023-02-16T05:51:55.906Z,15.30
2023-02-16T05:54:22.513Z,15.80
2023-02-16T05:56:51.624Z,17.00
2023-02-16T05:59:18.595Z,15.20
2023-02-16T06:01:50.409Z,15.45
2023-02-16T06:04:17.795Z,15.90
2023-02-16T06:06:44.513Z,15.80
2023-02-16T06:09:11.171Z,15.38
2023-02-16T06:11:37.784Z,15.02
2023-02-16T06:14:07.410Z,15.15
2023-02-16T06:16:35.167Z,15.77
2023-02-16T06:19:02.275Z,16.20
2023-02-16T06:21:29.467Z,15.13
2023-02-16T06:23:56.770Z,14.93
2023-02-16T06:26:23.592Z,15.70
2023-02-16T06:28:50.353Z,14.10
2023-02-16T06:31:17.433Z,13.35
2023-02-16T06:33:44.610Z,14.30
2023-02-16T06:36:11.696Z,13.73
2023-02-16T06:38:38.453Z,13.98
2023-02-16T06:41:06.208Z,12.40
2023-02-16T06:43:32.990Z,11.98
2023-02-16T06:45:59.584Z,12.02
2023-02-16T06:48:26.099Z,11.32
2023-02-16T06:50:53.022Z,11.27
2023-02-16T06:53:20.482Z,10.82
2023-02-16T06:55:49.725Z,11.07
2023-02-16T06:58:16.328Z,10.63
2023-02-16T07:00:42.852Z,10.43
2023-02-16T07:03:09.445Z,10.02
2023-02-16T07:05:36.034Z,9.48
2023-02-16T07:08:02.587Z,9.48
2023-02-16T07:10:43.698Z,9.77
2023-02-16T07:15:42.183Z,9.18
2023-02-16T07:18:08.750Z,9.30
2023-02-16T07:20:35.336Z,9.38
2023-02-16T07:23:01.884Z,8.48
2023-02-16T07:25:28.684Z,8.48
2023-02-16T07:27:55.333Z,8.65
2023-02-16T07:30:22.502Z,7.93
2023-02-16T07:32:49.201Z,7.90
2023-02-16T07:35:15.711Z,8.20
2023-02-16T07:37:42.275Z,8.35
2023-02-16T07:40:09.316Z,7.97
2023-02-16T07:42:35.963Z,8.27
2023-02-16T07:45:02.554Z,7.00
2023-02-16T07:47:29.202Z,7.50
2023-02-16T07:49:55.750Z,7.03
2023-02-16T07:52:22.506Z,7.25
2023-02-16T07:54:49.114Z,7.05
2023-02-16T07:57:15.632Z,7.40
2023-02-16T07:59:42.255Z,8.00
2023-02-16T08:02:15.961Z,7.25
2023-02-16T08:04:43.735Z,6.68
2023-02-16T08:07:14.761Z,7.20
2023-02-16T08:09:41.523Z,6.45
2023-02-16T08:12:12.552Z,6.38
2023-02-16T08:14:40.208Z,6.55
2023-02-16T08:17:08.148Z,6.63
2023-02-16T08:19:35.016Z,6.65
2023-02-16T08:22:02.568Z,6.82
2023-02-16T08:24:29.391Z,6.72
2023-02-16T08:26:56.291Z,6.85
2023-02-16T08:29:23.928Z,6.70
2023-02-16T08:31:51.816Z,6.75
2023-02-16T08:34:19.992Z,6.80
2023-02-16T08:36:51.309Z,7.07
2023-02-16T08:39:20.633Z,6.82
2023-02-16T08:41:49.923Z,6.43
2023-02-16T08:44:17.920Z,6.40
2023-02-16T08:46:46.564Z,6.38
2023-02-16T08:49:14.629Z,6.53
2023-02-16T08:51:44.109Z,6.43
2023-02-16T08:54:18.091Z,7.00
2023-02-16T08:56:47.175Z,6.57
2023-02-16T08:59:19.136Z,6.80
2023-02-16T09:01:45.857Z,6.20
2023-02-16T09:04:13.460Z,6.10
2023-02-16T09:06:42.593Z,6.10
2023-02-16T09:09:10.151Z,5.95
2023-02-16T09:11:37.373Z,5.72
2023-02-16T09:14:04.892Z,6.25
2023-02-16T09:16:34.798Z,6.07
2023-02-16T09:19:02.038Z,6.10
2023-02-16T09:21:32.450Z,6.40
2023-02-16T09:24:04.490Z,6.07
2023-02-16T09:26:34.386Z,6.20
2023-02-16T09:29:02.200Z,6.20
2023-02-16T09:31:32.557Z,6.38
2023-02-16T09:34:07.917Z,5.75
2023-02-16T09:36:34.626Z,6.35
2023-02-16T09:39:02.316Z,6.00
2023-02-16T09:41:34.274Z,7.05
2023-02-16T09:44:31.222Z,5.78
2023-02-16T09:47:00.073Z,6.25
2023-02-16T09:49:33.693Z,6.03
2023-02-16T09:52:13.432Z,6.82
2023-02-16T09:54:47.065Z,6.22
2023-02-16T09:57:29.693Z,6.63
2023-02-16T10:00:16.375Z,6.88
2023-02-16T10:02:54.776Z,5.85
2023-02-16T10:05:27.379Z,5.60
2023-02-16T10:08:02.130Z,5.85
2023-02-16T10:10:47.875Z,5.90
2023-02-16T10:13:23.698Z,6.07
2023-02-16T10:18:23.332Z,5.78
2023-02-16T10:20:53.432Z,6.20
2023-02-16T10:23:35.672Z,6.38
2023-02-16T10:26:25.844Z,6.25
2023-02-16T10:29:14.092Z,6.13
2023-02-16T10:32:07.607Z,6.18
2023-02-16T10:34:42.989Z,5.38
2023-02-16T10:37:22.217Z,6.30
2023-02-16T10:40:17.854Z,6.15
2023-02-16T10:43:11.394Z,5.95
2023-02-16T10:45:51.909Z,5.88
2023-02-16T10:48:21.107Z,6.32
2023-02-16T10:51:09.297Z,5.95
2023-02-16T10:53:56.894Z,6.22
2023-02-16T10:56:23.359Z,5.70
2023-02-16T10:58:51.732Z,6.30
2023-02-16T11:01:22.047Z,6.07
2023-02-16T11:03:52.031Z,5.78
2023-02-16T11:06:22.915Z,6.00
2023-02-16T11:08:57.208Z,6.90
2023-02-16T11:11:27.820Z,5.47
2023-02-16T11:14:01.436Z,6.07
2023-02-16T11:16:29.782Z,5.80
2023-02-16T11:19:00.534Z,6.32
2023-02-16T11:22:02.665Z,5.90
2023-02-16T11:24:32.387Z,5.45
2023-02-16T11:27:22.595Z,5.93
2023-02-16T11:29:50.759Z,6.30
2023-02-16T11:32:20.068Z,5.75
2023-02-16T11:34:51.821Z,6.50
2023-02-16T11:37:33.837Z,5.80
2023-02-16T11:40:18.265Z,5.82
2023-02-16T11:42:48.105Z,5.82
2023-02-16T11:45:23.084Z,5.65
2023-02-16T11:48:13.834Z,5.70
2023-02-16T11:50:58.896Z,6.10
2023-02-16T11:53:33.363Z,5.85
2023-02-16T11:56:23.523Z,6.43
2023-02-16T11:59:05.458Z,5.82
2023-02-16T12:01:44.033Z,5.88
2023-02-16T12:04:22.473Z,6.13
2023-02-16T12:07:15.501Z,5.82
2023-02-16T12:10:02.367Z,5.40
2023-02-16T12:12:43.766Z,5.15
2023-02-16T12:15:44.877Z,5.97
2023-02-16T12:18:43.977Z,5.28
2023-02-16T12:21:19.323Z,5.53
2023-02-16T12:23:58.385Z,5.68
2023-02-16T12:26:44.615Z,5.53
2023-02-16T12:29:20.700Z,5.70
2023-02-16T12:32:31.264Z,5.28
2023-02-16T12:35:30.422Z,5.43
2023-02-16T12:38:26.940Z,5.88
2023-02-16T12:41:02.225Z,5.35
2023-02-16T12:43:31.522Z,5.25
2023-02-16T12:46:05.117Z,5.10
2023-02-16T12:48:50.660Z,5.78
2023-02-16T12:51:25.396Z,5.53
2023-02-16T12:54:04.136Z,4.97
2023-02-16T12:56:41.974Z,5.20
2023-02-16T12:59:23.764Z,5.53
2023-02-16T13:01:54.829Z,5.18
2023-02-16T13:04:42.707Z,4.90
2023-02-16T13:07:26.399Z,5.57
2023-02-16T13:10:17.462Z,5.32
2023-02-16T13:12:54.020Z,5.22
2023-02-16T13:15:31.563Z,5.25
2023-02-16T13:18:03.031Z,5.07
2023-02-16T13:20:30.227Z,5.22
2023-02-16T13:23:23.558Z,5.28
2023-02-16T13:26:14.700Z,4.82
2023-02-16T13:28:51.440Z,4.90
2023-02-16T13:32:03.264Z,4.95
2023-02-16T13:34:42.365Z,4.78
2023-02-16T13:37:24.469Z,5.03
2023-02-16T13:40:27.721Z,4.40
2023-02-16T13:43:02.008Z,4.25
2023-02-16T13:45:32.225Z,4.28
2023-02-16T13:48:00.184Z,4.75
2023-02-16T13:50:31.404Z,4.72
2023-02-16T13:53:12.581Z,4.60
2023-02-16T13:55:39.970Z,4.50
2023-02-16T13:58:27.399Z,4.60
2023-02-16T14:00:54.692Z,4.07
2023-02-16T14:03:21.217Z,4.55
2023-02-16T14:05:56.368Z,4.63
2023-02-16T14:08:23.050Z,4.32
2023-02-16T14:10:55.506Z,4.32
2023-02-16T14:13:36.093Z,4.47
2023-02-16T14:16:29.092Z,4.63
2023-02-16T14:19:02.591Z,4.38
2023-02-16T14:21:37.955Z,4.45
2023-02-16T14:24:07.539Z,4.05
2023-02-16T14:26:56.250Z,4.35
2023-02-16T14:29:27.806Z,4.05
2023-02-16T14:32:01.938Z,3.60
2023-02-16T14:34:39.368Z,4.30
2023-02-16T14:37:14.797Z,4.43
2023-02-16T14:40:04.073Z,3.92
2023-02-16T14:42:34.743Z,4.13
2023-02-16T14:45:38.837Z,3.72
2023-02-16T14:48:23.977Z,4.15
2023-02-16T14:51:28.035Z,4.00
2023-02-16T14:54:36.032Z,3.80
2023-02-16T14:57:23.734Z,4.55
2023-02-16T14:59:57.152Z,3.90
2023-02-16T15:02:34.554Z,4.07
2023-02-16T15:05:19.622Z,3.53
2023-02-16T15:07:54.704Z,4.30
2023-02-16T15:10:27.587Z,4.03
2023-02-16T15:12:56.557Z,3.70
2023-02-16T15:15:43.749Z,3.75
2023-02-16T15:18:17.192Z,4.22
2023-02-16T15:20:47.309Z,3.88
2023-02-16T15:23:48.453Z,4.13
2023-02-16T15:26:35.435Z,3.75
2023-02-16T15:29:29.327Z,3.35
2023-02-16T15:31:58.461Z,4.20
2023-02-16T15:34:36.025Z,3.60
2023-02-16T15:37:22.521Z,3.75
2023-02-16T15:40:08.721Z,4.07
2023-02-16T15:42:35.929Z,3.65
2023-02-16T15:45:25.893Z,3.78
2023-02-16T15:47:53.543Z,3.53
2023-02-16T15:50:26.970Z,4.18
2023-02-16T15:52:54.155Z,3.53
2023-02-16T15:55:20.780Z,3.38
2023-02-16T15:57:47.406Z,3.63
2023-02-16T16:00:25.086Z,3.78
2023-02-16T16:02:54.481Z,3.50
2023-02-16T16:05:35.473Z,4.18
2023-02-16T16:08:03.403Z,3.70
2023-02-16T16:10:36.540Z,3.20
2023-02-16T16:13:07.359Z,3.17
2023-02-16T16:15:43.940Z,3.05
2023-02-16T16:18:51.164Z,3.47
2023-02-16T16:24:07.570Z,3.10
2023-02-16T16:26:50.758Z,3.50
2023-02-16T16:29:35.923Z,3.72
2023-02-16T16:32:05.355Z,3.75
2023-02-16T16:34:38.160Z,2.85
2023-02-16T16:37:07.584Z,3.28
2023-02-16T16:39:37.127Z,3.40
2023-02-16T16:42:27.295Z,3.20
2023-02-16T16:44:54.307Z,3.28
2023-02-16T16:47:25.863Z,3.42
2023-02-16T16:49:59.037Z,3.38
2023-02-16T16:52:36.270Z,3.70
2023-02-16T16:55:22.151Z,3.15
2023-02-16T16:57:51.278Z,3.05
2023-02-16T17:00:20.114Z,3.17
2023-02-16T17:02:46.824Z,3.72
2023-02-16T17:05:13.514Z,3.33
2023-02-16T17:07:40.095Z,3.35
2023-02-16T17:10:07.560Z,3.38
2023-02-16T17:12:34.616Z,3.53
2023-02-16T17:15:02.514Z,3.78
2023-02-16T17:17:29.098Z,3.55
2023-02-16T17:19:55.876Z,3.85
2023-02-16T17:22:22.492Z,3.50
2023-02-16T17:24:49.719Z,3.65
2023-02-16T17:27:16.325Z,3.75
2023-02-16T17:29:44.725Z,3.30
2023-02-16T17:32:11.429Z,3.42
2023-02-16T17:34:38.133Z,3.67
2023-02-16T17:37:09.304Z,3.03
2023-02-16T17:39:36.144Z,3.42
2023-02-16T17:42:02.713Z,3.67
2023-02-16T17:44:29.452Z,2.90
2023-02-16T17:46:56.253Z,3.40
2023-02-16T17:49:22.810Z,3.42
2023-02-16T17:51:49.409Z,3.65
2023-02-16T17:54:16.129Z,3.75
2023-02-16T17:56:45.994Z,3.17
2023-02-16T17:59:15.421Z,2.97
2023-02-16T18:01:43.576Z,3.33
2023-02-16T18:04:10.275Z,3.50
2023-02-16T18:06:36.885Z,3.45
2023-02-16T18:09:04.057Z,3.10
2023-02-16T18:11:30.651Z,3.35
2023-02-16T18:13:57.239Z,3.03
2023-02-16T18:16:26.977Z,2.90
2023-02-16T18:18:53.752Z,3.17
2023-02-16T18:21:20.382Z,3.17
2023-02-16T18:23:46.999Z,3.05
2023-02-16T18:26:15.060Z,3.03
2023-02-16T18:28:41.644Z,3.40
2023-02-16T18:31:08.522Z,2.95
2023-02-16T18:33:35.289Z,3.28
2023-02-16T18:36:03.046Z,3.03
2023-02-16T18:38:29.779Z,2.80
2023-02-16T18:40:56.344Z,2.78
2023-02-16T18:43:23.401Z,2.97
2023-02-16T18:45:50.111Z,3.22
2023-02-16T18:48:16.826Z,2.92
2023-02-16T18:50:43.561Z,2.95
2023-02-16T18:53:10.087Z,3.00
2023-02-16T18:55:36.672Z,2.95
2023-02-16T18:58:07.425Z,2.80
2023-02-16T19:00:34.616Z,2.80
2023-02-16T19:03:01.309Z,2.65
2023-02-16T19:05:28.309Z,2.75
2023-02-16T19:07:54.926Z,2.60
2023-02-16T19:10:21.485Z,2.75
2023-02-16T19:12:48.084Z,2.88
2023-02-16T19:15:14.692Z,2.47
2023-02-16T19:17:41.230Z,2.70
2023-02-16T19:20:11.532Z,2.75
2023-02-16T19:22:38.175Z,2.70
2023-02-16T19:25:06.465Z,2.50
2023-02-16T19:27:33.159Z,2.70
2023-02-16T19:29:59.964Z,2.65
2023-02-16T19:32:26.564Z,2.67
2023-02-16T19:34:53.164Z,2.20
2023-02-16T19:37:19.732Z,2.95
2023-02-16T19:39:46.339Z,2.50
2023-02-16T19:42:12.929Z,3.10
2023-02-16T19:44:40.763Z,2.33
2023-02-16T19:47:07.730Z,2.70
2023-02-16T19:49:35.633Z,2.65
2023-02-16T19:52:04.155Z,2.58
2023-02-16T19:54:34.774Z,2.42
2023-02-16T19:57:02.365Z,2.47
2023-02-16T19:59:28.941Z,2.05
2023-02-16T20:01:55.588Z,2.30
2023-02-16T20:04:22.168Z,2.35
2023-02-16T20:06:49.700Z,2.22
2023-02-16T20:09:18.367Z,2.60
2023-02-16T20:11:45.030Z,2.50
2023-02-16T20:14:12.139Z,2.08
2023-02-16T20:16:39.978Z,2.60
2023-02-16T20:19:06.690Z,2.08
2023-02-16T20:21:33.749Z,2.30
2023-02-16T20:24:02.526Z,2.28
2023-02-16T20:26:34.458Z,2.25
2023-02-16T20:29:01.722Z,2.00
2023-02-16T20:31:34.424Z,2.33
2023-02-16T20:34:01.570Z,2.13
2023-02-16T20:36:28.319Z,2.42
2023-02-16T20:38:54.928Z,2.50
2023-02-16T20:41:21.898Z,1.88
2023-02-16T20:43:48.460Z,1.92
2023-02-16T20:46:15.948Z,2.25
2023-02-16T20:48:42.786Z,2.20
2023-02-16T20:51:11.581Z,1.85
2023-02-16T20:53:38.598Z,1.90
2023-02-16T20:56:23.381Z,1.75
2023-02-16T20:58:52.337Z,1.75
2023-02-16T21:01:21.692Z,2.20
2023-02-16T21:03:48.844Z,2.08
2023-02-16T21:06:15.788Z,1.90
2023-02-16T21:08:42.472Z,1.80
2023-02-16T21:11:09.209Z,1.90
2023-02-16T21:13:37.718Z,1.83
2023-02-16T21:16:04.952Z,1.67
2023-02-16T21:18:31.770Z,2.03
2023-02-16T21:21:00.326Z,2.10
2023-02-16T21:23:27.084Z,1.80
2023-02-16T21:26:05.540Z,1.80
2023-02-16T21:28:32.422Z,1.73
2023-02-16T21:31:11.136Z,1.80
2023-02-16T21:33:37.938Z,1.73
2023-02-16T21:36:06.461Z,1.80
2023-02-16T21:38:34.815Z,1.30
2023-02-16T21:41:21.784Z,1.75
2023-02-16T21:43:48.324Z,1.48
2023-02-16T21:46:15.180Z,1.60
2023-02-16T21:48:48.421Z,1.80
2023-02-16T21:51:21.799Z,1.70
2023-02-16T21:53:48.905Z,1.48
2023-02-16T21:56:24.514Z,1.80
2023-02-16T21:58:51.097Z,1.60
2023-02-16T22:01:25.596Z,1.60
2023-02-16T22:03:58.356Z,1.40
2023-02-16T22:06:28.000Z,1.35
2023-02-16T22:08:54.618Z,1.48
2023-02-16T22:11:21.666Z,2.05
2023-02-16T22:13:53.103Z,2.30
2023-02-16T22:16:20.444Z,1.90
2023-02-16T22:18:47.801Z,2.05
2023-02-16T22:21:15.295Z,2.28
2023-02-16T22:23:42.061Z,2.60
2023-02-16T22:26:08.934Z,2.33
2023-02-16T22:28:37.205Z,2.47
2023-02-16T22:31:08.571Z,2.58
2023-02-16T22:33:35.633Z,3.22
2023-02-16T22:36:14.036Z,3.15
2023-02-16T22:38:41.917Z,3.00
2023-02-16T22:41:09.731Z,3.45
2023-02-16T22:43:36.840Z,3.83
2023-02-16T22:46:14.098Z,3.65
2023-02-16T22:48:41.206Z,3.47
2023-02-16T22:51:11.422Z,3.72
2023-02-16T22:53:38.311Z,3.63
2023-02-16T22:56:07.320Z,3.47
2023-02-16T22:58:34.803Z,3.45
2023-02-16T23:01:01.557Z,3.75
2023-02-16T23:03:28.876Z,3.42
2023-02-16T23:05:55.454Z,3.60
2023-02-16T23:08:22.750Z,3.90
2023-02-16T23:11:01.911Z,3.47
2023-02-16T23:13:31.146Z,4.03
2023-02-16T23:16:04.843Z,3.67
2023-02-16T23:18:32.005Z,3.83
2023-02-16T23:21:05.920Z,3.85
2023-02-16T23:23:32.678Z,3.72
2023-02-16T23:25:59.274Z,4.10
2023-02-16T23:28:25.863Z,3.35
2023-02-16T23:30:55.990Z,3.70
2023-02-16T23:33:23.455Z,3.33
2023-02-16T23:35:50.015Z,3.25
2023-02-16T23:38:16.845Z,2.58
2023-02-16T23:40:43.901Z,3.30
2023-02-16T23:43:10.982Z,3.30
2023-02-16T23:45:37.987Z,2.95
2023-02-16T23:48:04.723Z,3.17
2023-02-16T23:50:31.262Z,3.10
2023-02-16T23:52:57.783Z,2.55
2023-02-16T23:55:24.312Z,2.55
2023-02-16T23:57:50.811Z,2.85
